createdAt,value
2023-02-27T00:01:15.791Z,1.6
2023-02-27T00:04:15.797Z,1.6
2023-02-27T00:10:15.790Z,1.6
2023-02-27T00:13:15.795Z,1.6
2023-02-27T00:16:15.810Z,1.6
2023-02-27T00:19:15.780Z,1.6
2023-02-27T00:22:15.793Z,1.6
2023-02-27T00:25:15.783Z,1.6
2023-02-27T00:28:15.788Z,1.6
2023-02-27T00:31:15.810Z,1.6
2023-02-27T00:34:15.812Z,1.6
2023-02-27T00:37:15.780Z,1.5
2023-02-27T00:43:15.772Z,1.5
2023-02-27T00:46:15.797Z,1.5
2023-02-27T00:49:15.765Z,1.5
2023-02-27T00:52:15.762Z,1.5
2023-02-27T00:55:15.758Z,1.5
2023-02-27T00:58:15.762Z,1.5
2023-02-27T01:01:15.816Z,1.5
2023-02-27T01:04:15.763Z,1.5
2023-02-27T01:07:15.756Z,1.5
2023-02-27T01:13:15.755Z,1.5
2023-02-27T01:16:15.849Z,1.4
2023-02-27T01:19:15.746Z,1.4
2023-02-27T01:22:15.760Z,1.4
2023-02-27T01:25:15.763Z,1.4
2023-02-27T01:28:15.756Z,1.4
2023-02-27T01:31:15.771Z,1.4
2023-02-27T01:34:15.744Z,1.4
2023-02-27T01:37:15.779Z,1.4
2023-02-27T01:40:15.744Z,1.4
2023-02-27T01:43:15.738Z,1.4
2023-02-27T01:46:15.731Z,1.3
2023-02-27T01:49:15.750Z,1.3
2023-02-27T01:52:15.733Z,1.3
2023-02-27T01:55:15.739Z,1.3
2023-02-27T01:58:15.718Z,1.3
2023-02-27T02:01:15.752Z,1.3
2023-02-27T02:04:15.717Z,1.3
2023-02-27T02:07:15.724Z,1.3
2023-02-27T02:10:15.767Z,1.3
2023-02-27T02:13:15.775Z,1.2
2023-02-27T02:16:15.709Z,1.2
2023-02-27T02:19:15.781Z,1.2
2023-02-27T02:22:15.728Z,1.2
2023-02-27T02:25:15.718Z,1.2
2023-02-27T02:28:15.723Z,1.2
2023-02-27T02:31:15.854Z,1.2
2023-02-27T02:34:15.730Z,1.1
2023-02-27T02:37:15.723Z,1.1
2023-02-27T02:40:15.711Z,1.1
2023-02-27T02:43:15.707Z,1.1
2023-02-27T02:46:15.777Z,1.1
2023-02-27T02:49:15.726Z,1.1
2023-02-27T02:52:15.720Z,1.1
2023-02-27T02:55:15.711Z,1.1
2023-02-27T02:58:15.723Z,1.1
2023-02-27T03:01:15.770Z,1.1
2023-02-27T03:04:15.737Z,1
2023-02-27T03:07:15.727Z,1
2023-02-27T03:10:15.695Z,1
2023-02-27T03:13:15.697Z,1
2023-02-27T03:16:15.704Z,1
2023-02-27T03:19:15.702Z,1
2023-02-27T03:22:15.694Z,1
2023-02-27T03:25:15.698Z,1
2023-02-27T03:28:15.693Z,1
2023-02-27T03:31:15.791Z,1
2023-02-27T03:34:15.696Z,1
2023-02-27T03:37:15.687Z,1
2023-02-27T03:40:15.707Z,1
2023-02-27T03:43:15.693Z,0.9
2023-02-27T03:46:15.702Z,0.9
2023-02-27T03:49:15.671Z,0.9
2023-02-27T03:52:15.683Z,0.9
2023-02-27T03:55:15.691Z,0.9
2023-02-27T03:58:15.682Z,0.9
2023-02-27T04:01:15.673Z,0.9
2023-02-27T04:07:15.676Z,0.9
2023-02-27T04:13:15.668Z,0.9
2023-02-27T04:16:15.820Z,0.9
2023-02-27T04:19:15.663Z,0.9
2023-02-27T04:25:15.671Z,0.8
2023-02-27T04:28:15.674Z,0.8
2023-02-27T04:31:15.766Z,0.8
2023-02-27T04:34:15.678Z,0.8
2023-02-27T04:37:15.684Z,0.8
2023-02-27T04:40:15.673Z,0.8
2023-02-27T04:43:15.672Z,0.8
2023-02-27T04:46:15.669Z,0.8
2023-02-27T04:49:15.665Z,0.8
2023-02-27T04:52:15.743Z,0.7
2023-02-27T04:55:15.722Z,0.7
2023-02-27T04:58:15.725Z,0.7
2023-02-27T05:01:15.709Z,0.7
2023-02-27T05:04:15.721Z,0.7
2023-02-27T05:07:15.723Z,0.7
2023-02-27T05:10:15.748Z,0.6
2023-02-27T05:13:15.709Z,0.6
2023-02-27T05:16:15.806Z,0.5
2023-02-27T05:19:15.985Z,0.5
2023-02-27T05:22:15.723Z,0.5
2023-02-27T05:25:15.721Z,0.5
2023-02-27T05:28:15.713Z,0.4
2023-02-27T05:31:15.774Z,0.4
2023-02-27T05:34:15.714Z,0.4
2023-02-27T05:37:15.758Z,0.4
2023-02-27T05:40:15.710Z,0.4
2023-02-27T05:43:15.711Z,0.4
2023-02-27T05:46:15.747Z,0.5
2023-02-27T05:49:15.715Z,0.5
2023-02-27T05:52:15.700Z,0.5
2023-02-27T05:55:17.783Z,0.4
2023-02-27T05:58:15.701Z,0.4
2023-02-27T06:01:15.716Z,0.4
2023-02-27T06:04:15.701Z,0.4
2023-02-27T06:07:15.711Z,0.4
2023-02-27T06:10:15.713Z,0.4
2023-02-27T06:13:15.708Z,0.4
2023-02-27T06:16:15.777Z,0.4
2023-02-27T06:19:15.696Z,0.4
2023-02-27T06:22:15.703Z,0.4
2023-02-27T06:25:15.697Z,0.4
2023-02-27T06:28:15.696Z,0.5
2023-02-27T06:31:15.790Z,0.5
2023-02-27T06:34:15.702Z,0.5
2023-02-27T06:37:15.709Z,0.5
2023-02-27T06:40:15.687Z,0.5
2023-02-27T06:43:15.688Z,0.5
2023-02-27T06:46:15.727Z,0.4
2023-02-27T06:49:15.686Z,0.4
2023-02-27T06:52:15.683Z,0.4
2023-02-27T06:55:15.684Z,0.4
2023-02-27T06:58:15.682Z,0.4
2023-02-27T07:01:15.730Z,0.4
2023-02-27T07:04:15.768Z,0.5
2023-02-27T07:07:33.477Z,0.5
2023-02-27T07:10:15.751Z,0.5
2023-02-27T07:13:17.903Z,0.5
2023-02-27T07:16:15.724Z,0.5
2023-02-27T07:19:15.678Z,0.5
2023-02-27T07:22:15.681Z,0.5
2023-02-27T07:25:15.675Z,0.5
2023-02-27T07:28:15.683Z,0.5
2023-02-27T07:31:15.744Z,0.5
2023-02-27T07:34:15.690Z,0.5
2023-02-27T07:37:15.708Z,0.6
2023-02-27T07:40:15.684Z,0.6
2023-02-27T07:43:15.677Z,0.6
2023-02-27T07:46:15.697Z,0.6
2023-02-27T07:49:15.676Z,0.6
2023-02-27T07:52:15.682Z,0.7
2023-02-27T07:55:15.673Z,0.7
2023-02-27T07:58:15.672Z,0.7
2023-02-27T08:01:15.678Z,0.7
2023-02-27T08:04:15.711Z,0.8
2023-02-27T08:07:15.680Z,0.8
2023-02-27T08:10:15.674Z,0.8
2023-02-27T08:13:16.814Z,0.9
2023-02-27T08:16:15.725Z,0.9
2023-02-27T08:19:15.666Z,1
2023-02-27T08:22:15.669Z,1
2023-02-27T08:25:15.661Z,1
2023-02-27T08:28:15.668Z,1.1
2023-02-27T08:31:15.683Z,1.1
2023-02-27T08:34:15.662Z,1.1
2023-02-27T08:37:15.647Z,1.2
2023-02-27T08:40:15.687Z,1.2
2023-02-27T08:43:15.652Z,1.2
2023-02-27T08:46:15.689Z,1.3
2023-02-27T08:49:15.651Z,1.3
2023-02-27T08:52:15.651Z,1.3
2023-02-27T08:55:15.637Z,1.4
2023-02-27T08:58:17.092Z,1.4
2023-02-27T09:01:15.650Z,1.4
2023-02-27T09:04:15.640Z,1.5
2023-02-27T09:07:15.632Z,1.5
2023-02-27T09:10:15.634Z,1.5
2023-02-27T09:13:15.623Z,1.6
2023-02-27T09:16:15.710Z,1.6
2023-02-27T09:19:15.634Z,1.6
2023-02-27T09:22:15.622Z,1.7
2023-02-27T09:25:15.629Z,1.7
2023-02-27T09:28:15.638Z,1.8
2023-02-27T09:31:15.649Z,1.9
2023-02-27T09:34:15.620Z,1.9
2023-02-27T09:37:15.629Z,1.9
2023-02-27T09:40:15.617Z,2
2023-02-27T09:43:15.676Z,2
2023-02-27T09:46:15.676Z,2
2023-02-27T09:49:15.641Z,2.1
2023-02-27T09:52:15.632Z,2.1
2023-02-27T09:55:15.612Z,2.2
2023-02-27T09:58:15.624Z,2.2
2023-02-27T10:01:15.620Z,2.2
2023-02-27T10:04:15.611Z,2.3
2023-02-27T10:07:15.614Z,2.5
2023-02-27T10:10:15.606Z,2.6
2023-02-27T10:13:15.612Z,2.6
2023-02-27T10:16:15.630Z,2.7
2023-02-27T10:19:15.622Z,2.8
2023-02-27T10:22:15.604Z,2.9
2023-02-27T10:25:30.108Z,3
2023-02-27T10:28:15.613Z,3
2023-02-27T10:31:15.708Z,3.1
2023-02-27T10:34:15.590Z,3.2
2023-02-27T10:37:15.596Z,3.2
2023-02-27T10:40:15.644Z,3.2
2023-02-27T10:43:15.607Z,3.2
2023-02-27T10:46:16.388Z,3.2
2023-02-27T10:49:17.625Z,3.2
2023-02-27T10:52:15.863Z,3.2
2023-02-27T10:55:15.877Z,3.2
2023-02-27T10:58:15.895Z,3.2
2023-02-27T11:01:15.885Z,3.3
2023-02-27T11:04:15.876Z,3.3
2023-02-27T11:07:15.877Z,3.3
2023-02-27T11:13:15.869Z,3.4
2023-02-27T11:16:15.927Z,3.4
2023-02-27T11:19:15.854Z,3.4
2023-02-27T11:22:15.874Z,3.4
2023-02-27T11:25:15.864Z,3.5
2023-02-27T11:28:15.848Z,3.5
2023-02-27T11:31:15.937Z,3.5
2023-02-27T11:34:15.871Z,3.5
2023-02-27T11:37:15.854Z,3.5
2023-02-27T11:40:15.932Z,3.6
2023-02-27T11:43:15.889Z,3.6
2023-02-27T11:46:46.717Z,3.7
2023-02-27T11:49:15.850Z,3.7
2023-02-27T11:52:15.855Z,3.7
2023-02-27T11:55:15.897Z,3.7
2023-02-27T11:58:15.855Z,3.7
2023-02-27T12:01:15.851Z,3.6
2023-02-27T12:04:15.883Z,3.6
2023-02-27T12:07:15.838Z,3.5
2023-02-27T12:10:15.845Z,3.5
2023-02-27T12:13:15.852Z,3.5
2023-02-27T12:16:15.958Z,3.5
2023-02-27T12:19:15.843Z,3.5
2023-02-27T12:22:15.848Z,3.5
2023-02-27T12:25:15.841Z,3.5
2023-02-27T12:28:15.847Z,3.5
2023-02-27T12:31:15.868Z,3.5
2023-02-27T12:34:15.844Z,3.5
2023-02-27T12:37:15.831Z,3.6
2023-02-27T12:40:15.847Z,3.6
2023-02-27T12:43:15.866Z,3.7
2023-02-27T12:46:15.835Z,3.8
2023-02-27T12:49:15.856Z,3.9
2023-02-27T12:52:15.855Z,3.9
2023-02-27T12:55:15.832Z,3.9
2023-02-27T12:58:15.855Z,4
2023-02-27T13:01:15.881Z,4
2023-02-27T13:04:15.878Z,4
2023-02-27T13:07:15.832Z,4
2023-02-27T13:10:15.838Z,4
2023-02-27T13:13:15.843Z,4
2023-02-27T13:16:15.842Z,3.9
2023-02-27T13:19:15.849Z,3.9
2023-02-27T13:22:15.812Z,3.9
2023-02-27T13:25:15.846Z,3.9
2023-02-27T13:28:15.838Z,4
2023-02-27T13:31:15.833Z,4
2023-02-27T13:34:15.813Z,4
2023-02-27T13:40:15.818Z,4
2023-02-27T13:43:15.809Z,4
2023-02-27T13:46:15.825Z,4
2023-02-27T13:49:27.076Z,4
2023-02-27T13:52:15.808Z,4
2023-02-27T13:55:15.800Z,4
2023-02-27T13:58:15.804Z,4
2023-02-27T14:01:15.841Z,4
2023-02-27T14:04:15.799Z,4.1
2023-02-27T14:07:15.799Z,4.2
2023-02-27T14:10:15.862Z,4.3
2023-02-27T14:13:15.818Z,4.3
2023-02-27T14:16:15.863Z,4.4
2023-02-27T14:19:15.858Z,4.5
2023-02-27T14:22:15.819Z,4.5
2023-02-27T14:25:15.807Z,4.5
2023-02-27T14:28:15.816Z,4.5
2023-02-27T14:31:15.843Z,4.5
2023-02-27T14:34:15.818Z,4.4
2023-02-27T14:37:15.817Z,4.4
2023-02-27T14:43:15.821Z,4.4
2023-02-27T14:46:15.852Z,4.4
2023-02-27T14:49:15.822Z,4.4
2023-02-27T14:52:15.798Z,4.3
2023-02-27T14:55:15.814Z,4.3
2023-02-27T14:58:15.805Z,4.3
2023-02-27T15:01:15.838Z,4.2
2023-02-27T15:04:15.882Z,4.2
2023-02-27T15:07:15.806Z,4.2
2023-02-27T15:10:15.812Z,4.2
2023-02-27T15:13:15.809Z,4.2
2023-02-27T15:16:16.475Z,4.3
2023-02-27T15:19:15.824Z,4.3
2023-02-27T15:22:16.889Z,4.3
2023-02-27T15:25:15.806Z,4.3
2023-02-27T15:28:15.802Z,4.3
2023-02-27T15:31:15.849Z,4.3
2023-02-27T15:34:15.800Z,4.3
2023-02-27T15:37:15.801Z,4.3
2023-02-27T15:40:15.801Z,4.2
2023-02-27T15:43:15.804Z,4.2
2023-02-27T15:46:15.862Z,4.2
2023-02-27T15:49:15.793Z,4.2
2023-02-27T15:52:15.791Z,4.2
2023-02-27T15:55:15.810Z,4.2
2023-02-27T15:58:15.821Z,4.2
2023-02-27T16:01:15.813Z,4.2
2023-02-27T16:04:15.793Z,4.2
2023-02-27T16:07:15.794Z,4.2
2023-02-27T16:10:15.792Z,4.2
2023-02-27T16:13:15.796Z,4.2
2023-02-27T16:16:15.853Z,4.1
2023-02-27T16:19:15.786Z,4.1
2023-02-27T16:22:15.791Z,4.1
2023-02-27T16:25:15.810Z,4.1
2023-02-27T16:28:15.778Z,4.1
2023-02-27T16:31:15.797Z,4.1
2023-02-27T16:37:15.983Z,4
2023-02-27T16:40:15.855Z,4
2023-02-27T16:43:15.765Z,4
2023-02-27T16:46:15.834Z,4
2023-02-27T16:49:19.878Z,3.9
2023-02-27T16:52:15.788Z,3.9
2023-02-27T16:58:15.782Z,3.9
2023-02-27T17:01:15.821Z,3.9
2023-02-27T17:04:25.226Z,3.9
2023-02-27T17:07:15.881Z,3.9
2023-02-27T17:10:15.770Z,3.8
2023-02-27T17:13:15.774Z,3.8
2023-02-27T17:19:15.770Z,3.8
2023-02-27T17:22:15.813Z,3.8
2023-02-27T17:25:15.787Z,3.8
2023-02-27T17:28:15.777Z,3.7
2023-02-27T17:31:15.772Z,3.7
2023-02-27T17:34:15.783Z,3.7
2023-02-27T17:37:15.799Z,3.6
2023-02-27T17:40:15.772Z,3.6
2023-02-27T17:43:15.764Z,3.6
2023-02-27T17:46:15.802Z,3.5
2023-02-27T17:49:15.780Z,3.5
2023-02-27T17:52:15.774Z,3.5
2023-02-27T17:55:15.797Z,3.4
2023-02-27T17:58:15.766Z,3.4
2023-02-27T18:01:15.823Z,3.4
2023-02-27T18:04:15.760Z,3.4
2023-02-27T18:07:15.758Z,3.3
2023-02-27T18:10:15.817Z,3.3
2023-02-27T18:13:15.760Z,3.2
2023-02-27T18:16:15.827Z,3.2
2023-02-27T18:19:15.751Z,3.2
2023-02-27T18:22:15.754Z,3.1
2023-02-27T18:25:16.773Z,3.1
2023-02-27T18:28:15.754Z,3.1
2023-02-27T18:31:15.808Z,3.1
2023-02-27T18:34:15.745Z,3
2023-02-27T18:37:15.752Z,3
2023-02-27T18:40:15.750Z,3
2023-02-27T18:43:15.756Z,3
2023-02-27T18:46:15.790Z,3
2023-02-27T18:49:15.790Z,3
2023-02-27T18:52:15.748Z,3
2023-02-27T18:55:15.748Z,2.9
2023-02-27T18:58:15.750Z,2.9
2023-02-27T19:01:15.742Z,2.9
2023-02-27T19:04:15.747Z,2.9
2023-02-27T19:07:15.745Z,2.9
2023-02-27T19:10:15.743Z,2.9
2023-02-27T19:13:15.746Z,2.8
2023-02-27T19:16:15.786Z,2.8
2023-02-27T19:19:15.778Z,2.8
2023-02-27T19:22:16.150Z,2.8
2023-02-27T19:25:15.748Z,2.7
2023-02-27T19:28:15.748Z,2.7
2023-02-27T19:31:15.808Z,2.7
2023-02-27T19:34:15.735Z,2.6
2023-02-27T19:37:15.745Z,2.6
2023-02-27T19:40:15.750Z,2.6
2023-02-27T19:43:15.741Z,2.6
2023-02-27T19:46:15.850Z,2.6
2023-02-27T19:49:15.748Z,2.6
2023-02-27T19:52:15.729Z,2.6
2023-02-27T19:55:15.754Z,2.7
2023-02-27T19:58:15.736Z,2.7
2023-02-27T20:01:15.823Z,2.7
2023-02-27T20:04:15.759Z,2.7
2023-02-27T20:07:15.736Z,2.7
2023-02-27T20:10:15.751Z,2.7
2023-02-27T20:13:15.940Z,2.7
2023-02-27T20:16:15.894Z,2.7
2023-02-27T20:19:15.732Z,2.7
2023-02-27T20:22:15.731Z,2.7
2023-02-27T20:25:15.732Z,2.7
2023-02-27T20:28:15.730Z,2.7
2023-02-27T20:31:15.744Z,2.7
2023-02-27T20:34:15.748Z,2.7
2023-02-27T20:37:15.716Z,2.7
2023-02-27T20:40:15.721Z,2.7
2023-02-27T20:43:15.718Z,2.7
2023-02-27T20:46:15.866Z,2.7
2023-02-27T20:49:15.791Z,2.7
2023-02-27T20:55:15.711Z,2.7
2023-02-27T20:58:15.724Z,2.7
2023-02-27T21:01:15.788Z,2.7
2023-02-27T21:04:15.822Z,2.6
2023-02-27T21:07:15.715Z,2.6
2023-02-27T21:10:15.746Z,2.6
2023-02-27T21:13:15.716Z,2.6
2023-02-27T21:16:15.806Z,2.6
2023-02-27T21:19:16.180Z,2.6
2023-02-27T21:22:15.716Z,2.6
2023-02-27T21:25:15.735Z,2.6
2023-02-27T21:28:15.707Z,2.6
2023-02-27T21:31:15.757Z,2.6
2023-02-27T21:34:15.694Z,2.6
2023-02-27T21:37:15.709Z,2.6
2023-02-27T21:40:15.706Z,2.5
2023-02-27T21:43:15.697Z,2.5
2023-02-27T21:46:15.730Z,2.5
2023-02-27T21:49:15.689Z,2.5
2023-02-27T21:52:15.675Z,2.5
2023-02-27T21:55:15.690Z,2.5
2023-02-27T22:01:15.814Z,2.4
2023-02-27T22:04:15.677Z,2.4
2023-02-27T22:10:15.672Z,2.4
2023-02-27T22:13:15.680Z,2.4
2023-02-27T22:16:15.734Z,2.4
2023-02-27T22:19:15.658Z,2.3
2023-02-27T22:22:15.659Z,2.3
2023-02-27T22:25:15.670Z,2.3
2023-02-27T22:28:15.664Z,2.3
2023-02-27T22:31:15.709Z,2.3
2023-02-27T22:34:15.661Z,2.3
2023-02-27T22:37:15.660Z,2.3
2023-02-27T22:40:15.642Z,2.2
2023-02-27T22:43:15.659Z,2.2
2023-02-27T22:46:15.669Z,2.2
2023-02-27T22:49:15.650Z,2.2
2023-02-27T22:52:15.636Z,2.2
2023-02-27T22:55:15.649Z,2.2
2023-02-27T22:58:15.640Z,2.2
2023-02-27T23:01:15.644Z,2.2
2023-02-27T23:04:15.650Z,2.2
2023-02-27T23:07:15.656Z,2.2
2023-02-27T23:10:15.630Z,2.2
2023-02-27T23:13:15.629Z,2.2
2023-02-27T23:16:15.691Z,2.2
2023-02-27T23:19:15.630Z,2.2
2023-02-27T23:22:15.628Z,2.2
2023-02-27T23:25:15.643Z,2.2
2023-02-27T23:28:15.631Z,2.2
2023-02-27T23:31:15.689Z,2.2
2023-02-27T23:34:15.619Z,2.1
2023-02-27T23:37:15.616Z,2.1
2023-02-27T23:40:15.618Z,2.1
2023-02-27T23:43:15.624Z,2.1
2023-02-27T23:46:15.623Z,2.1
2023-02-27T23:49:15.616Z,2
2023-02-27T23:52:15.616Z,2
2023-02-27T23:55:15.629Z,2
2023-02-27T23:58:15.608Z,2
